Time;durP1;ratioP1;P1;durP2;ratioP2;P2;SDS_P1;SDS_P2;PMS_P1;PMS_P2;Temp;Humidity;BMP_temperature;BMP_pressure;BME280_temperature;BME280_humidity;BME280_pressure;Samples;Min_cycle;Max_cycle;Signal;HPM_P1;HPM_P2
2021/03/21 00:00:43;;;;;;;;;;;19.70;54.50;;;;;;5056371;28;1360;-69
2021/03/21 00:03:08;;;;;;;;;;;19.70;54.50;;;;;;5062752;28;1087;-69
2021/03/21 00:05:33;;;;;;;;;;;19.70;54.50;;;;;;5072246;28;1302;-70
2021/03/21 00:08:03;;;;;;;;;;;19.70;54.50;;;;;;5070407;28;1302;-70
2021/03/21 00:10:29;;;;;;;;;;;19.70;54.60;;;;;;5070084;28;1459;-69
2021/03/21 00:12:55;;;;;;;;;;;19.70;54.60;;;;;;5070432;28;1902;-69
2021/03/21 00:15:21;;;;;;;;;;;19.70;54.60;;;;;;5070162;28;1191;-70
2021/03/21 00:17:46;;;;;;;;;;;19.70;54.60;;;;;;5070222;28;1341;-70
2021/03/21 00:20:12;;;;;;;;;;;19.70;54.60;;;;;;5071384;28;1231;-69
2021/03/21 00:22:37;;;;;;;;;;;19.70;54.70;;;;;;5070617;28;1283;-70
2021/03/21 00:25:08;;;;;;;;;;;19.70;54.70;;;;;;5070175;28;1253;-70
2021/03/21 00:27:33;;;;;;;;;;;19.70;54.70;;;;;;5069886;28;1356;-69
2021/03/21 00:29:58;;;;;;;;;;;19.70;54.70;;;;;;5087263;28;1325;-70
2021/03/21 00:32:24;;;;;;;;;;;19.70;54.70;;;;;;5071407;28;1897;-70
2021/03/21 00:34:49;;;;;;;;;;;19.70;54.70;;;;;;5071765;28;1366;-69
2021/03/21 00:37:15;;;;;;;;;;;19.60;54.70;;;;;;5071333;28;1336;-70
2021/03/21 00:39:40;;;;;;;;;;;19.60;54.70;;;;;;5071896;28;1257;-70
2021/03/21 00:42:06;;;;;;;;;;;19.70;54.70;;;;;;5071564;28;1067;-70
2021/03/21 00:44:31;;;;;;;;;;;19.60;54.70;;;;;;5071622;28;1324;-70
2021/03/21 00:46:56;;;;;;;;;;;19.60;54.70;;;;;;5075146;28;1313;-69
2021/03/21 00:49:22;;;;;;;;;;;19.60;54.70;;;;;;5075431;28;1353;-68
2021/03/21 00:51:47;;;;;;;;;;;19.60;54.70;;;;;;5074396;28;1910;-68
2021/03/21 00:54:13;;;;;;;;;;;19.60;54.70;;;;;;5075633;28;1285;-68
2021/03/21 00:56:39;;;;;;;;;;;19.60;54.80;;;;;;5075503;28;1215;-68
2021/03/21 00:59:05;;;;;;;;;;;19.60;54.80;;;;;;5085935;28;1035;-68
2021/03/21 01:01:31;;;;;;;;;;;19.60;54.80;;;;;;5074266;28;1290;-68
2021/03/21 01:03:56;;;;;;;;;;;19.60;54.80;;;;;;5074385;28;1142;-68
2021/03/21 01:06:22;;;;;;;;;;;19.60;54.80;;;;;;5074123;28;1283;-68
2021/03/21 01:08:50;;;;;;;;;;;19.60;54.80;;;;;;5073594;28;977;-68
2021/03/21 01:11:17;;;;;;;;;;;19.60;54.80;;;;;;5075101;28;1957;-68
2021/03/21 01:13:42;;;;;;;;;;;19.60;54.80;;;;;;5075440;28;1385;-68
2021/03/21 01:16:09;;;;;;;;;;;19.60;54.80;;;;;;5074089;28;1307;-68
2021/03/21 01:18:35;;;;;;;;;;;19.50;54.80;;;;;;5073906;28;1345;-68
2021/03/21 01:21:05;;;;;;;;;;;19.60;54.90;;;;;;5075135;28;1387;-68
2021/03/21 01:23:30;;;;;;;;;;;19.50;54.80;;;;;;5073789;28;1241;-68
2021/03/21 01:25:56;;;;;;;;;;;19.50;54.80;;;;;;5075191;28;1344;-68
2021/03/21 01:28:22;;;;;;;;;;;19.50;54.90;;;;;;5074776;28;1267;-68
2021/03/21 01:30:48;;;;;;;;;;;19.50;54.90;;;;;;5073766;28;1898;-68
2021/03/21 01:33:13;;;;;;;;;;;19.50;54.90;;;;;;5073722;28;1261;-68
2021/03/21 01:35:39;;;;;;;;;;;19.50;54.90;;;;;;5075031;28;1268;-68
2021/03/21 01:38:04;;;;;;;;;;;19.50;54.90;;;;;;5074642;28;1074;-68
2021/03/21 01:40:30;;;;;;;;;;;19.50;54.90;;;;;;5074718;28;1352;-68
2021/03/21 01:42:55;;;;;;;;;;;19.50;54.90;;;;;;5074763;28;1269;-68
2021/03/21 01:45:41;;;;;;;;;;;19.50;54.90;;;;;;5074702;28;1382;-68
2021/03/21 01:48:11;;;;;;;;;;;19.50;54.90;;;;;;5074018;28;1447;-68
2021/03/21 01:50:47;;;;;;;;;;;19.50;55.00;;;;;;5073456;28;1252;-68
2021/03/21 01:53:13;;;;;;;;;;;19.50;55.00;;;;;;5074512;28;1094;-68
2021/03/21 01:55:38;;;;;;;;;;;19.50;55.00;;;;;;5074599;28;1245;-69
2021/03/21 01:58:03;;;;;;;;;;;19.50;55.00;;;;;;5071942;28;1264;-68
2021/03/21 02:00:29;;;;;;;;;;;19.50;55.00;;;;;;5066925;28;1055;-68
2021/03/21 02:02:54;;;;;;;;;;;19.50;55.00;;;;;;5070685;28;1326;-68
2021/03/21 02:05:20;;;;;;;;;;;19.40;54.90;;;;;;5064113;28;1295;-68
2021/03/21 02:08:00;;;;;;;;;;;19.50;55.00;;;;;;5063156;28;1360;-68
2021/03/21 02:10:40;;;;;;;;;;;19.50;55.10;;;;;;5064444;28;1220;-68
2021/03/21 02:13:15;;;;;;;;;;;19.50;55.00;;;;;;5063760;28;1902;-69
2021/03/21 02:15:43;;;;;;;;;;;19.50;55.00;;;;;;5065842;28;1307;-69
2021/03/21 02:18:11;;;;;;;;;;;19.50;55.10;;;;;;5089400;28;1278;-69
2021/03/21 02:20:39;;;;;;;;;;;19.50;55.10;;;;;;5066383;28;1337;-69
2021/03/21 02:23:13;;;;;;;;;;;19.50;55.10;;;;;;5066744;28;1274;-69
2021/03/21 02:25:45;;;;;;;;;;;19.50;55.10;;;;;;5076575;28;1387;-68
2021/03/21 02:28:29;;;;;;;;;;;19.40;55.10;;;;;;5074199;28;1681;-68
2021/03/21 02:30:55;;;;;;;;;;;19.40;55.10;;;;;;5074282;28;1893;-68
2021/03/21 02:33:20;;;;;;;;;;;19.40;55.10;;;;;;5073531;28;1685;-68
2021/03/21 02:35:51;;;;;;;;;;;19.40;55.10;;;;;;5074773;28;1382;-68
2021/03/21 02:38:30;;;;;;;;;;;19.40;55.10;;;;;;5073436;28;1629;-68
2021/03/21 02:40:57;;;;;;;;;;;19.40;55.10;;;;;;5073563;28;1596;-68
2021/03/21 02:43:43;;;;;;;;;;;19.40;55.10;;;;;;5075054;28;1731;-68
2021/03/21 02:46:17;;;;;;;;;;;19.40;55.10;;;;;;5074143;28;1587;-68
2021/03/21 02:48:44;;;;;;;;;;;19.40;55.10;;;;;;5074537;28;1654;-68
2021/03/21 02:51:11;;;;;;;;;;;19.40;55.10;;;;;;5073266;28;1953;-68
2021/03/21 02:53:42;;;;;;;;;;;19.40;55.10;;;;;;5073517;28;1746;-68
2021/03/21 02:56:07;;;;;;;;;;;19.40;55.10;;;;;;5073402;28;1708;-68
2021/03/21 02:58:35;;;;;;;;;;;19.40;55.10;;;;;;5074376;28;1366;-68
2021/03/21 03:01:03;;;;;;;;;;;19.40;55.10;;;;;;5073319;28;1694;-68
2021/03/21 03:03:29;;;;;;;;;;;19.40;55.10;;;;;;5074340;28;1092;-68
2021/03/21 03:05:55;;;;;;;;;;;19.40;55.10;;;;;;5074299;28;1877;-68
2021/03/21 03:08:23;;;;;;;;;;;19.40;55.10;;;;;;5072849;28;1587;-68
2021/03/21 03:10:50;;;;;;;;;;;19.40;55.10;;;;;;5073094;28;1638;-68
2021/03/21 03:13:27;;;;;;;;;;;19.40;55.10;;;;;;5073142;28;1359;-68
2021/03/21 03:15:54;;;;;;;;;;;19.40;55.10;;;;;;5072871;28;1641;-68
2021/03/21 03:18:36;;;;;;;;;;;19.40;55.20;;;;;;5072796;28;1345;-68
2021/03/21 03:21:13;;;;;;;;;;;19.40;55.20;;;;;;5061194;28;1687;-68
2021/03/21 03:23:40;;;;;;;;;;;19.40;55.20;;;;;;5073206;28;1640;-68
2021/03/21 03:26:16;;;;;;;;;;;19.40;55.20;;;;;;5072737;28;1225;-68
2021/03/21 03:28:44;;;;;;;;;;;19.40;55.20;;;;;;5072582;28;1515;-68
2021/03/21 03:31:15;;;;;;;;;;;19.40;55.20;;;;;;5072678;28;1963;-68
2021/03/21 03:33:41;;;;;;;;;;;19.30;55.20;;;;;;5089623;28;1714;-68
2021/03/21 03:36:07;;;;;;;;;;;19.40;55.20;;;;;;5072396;28;1594;-67
2021/03/21 03:38:33;;;;;;;;;;;19.30;55.20;;;;;;5071725;28;1779;-68
2021/03/21 03:41:02;;;;;;;;;;;19.30;55.20;;;;;;5072336;28;1401;-67
2021/03/21 03:43:30;;;;;;;;;;;19.30;55.10;;;;;;5072600;28;1405;-67
2021/03/21 03:46:04;;;;;;;;;;;19.30;55.10;;;;;;5072267;28;1695;-67
2021/03/21 03:48:36;;;;;;;;;;;19.40;55.10;;;;;;5073431;28;1648;-68
2021/03/21 03:51:01;;;;;;;;;;;19.40;55.10;;;;;;5073428;28;1909;-68
2021/03/21 03:53:36;;;;;;;;;;;19.40;55.60;;;;;;5073308;28;1590;-68
2021/03/21 03:56:06;;;;;;;;;;;19.40;55.00;;;;;;5073208;28;1656;-68
2021/03/21 03:58:35;;;;;;;;;;;19.40;54.90;;;;;;5088841;28;1329;-67
2021/03/21 04:01:07;;;;;;;;;;;19.50;55.00;;;;;;5054979;28;1581;-69
2021/03/21 04:03:36;;;;;;;;;;;19.50;54.90;;;;;;5048815;28;1446;-68
2021/03/21 04:06:04;;;;;;;;;;;19.40;54.80;;;;;;5070870;28;1402;-68
2021/03/21 04:08:39;;;;;;;;;;;19.50;54.90;;;;;;5071789;28;1668;-69
2021/03/21 04:11:20;;;;;;;;;;;19.50;54.80;;;;;;5071912;28;1909;-69
2021/03/21 04:13:47;;;;;;;;;;;19.50;54.70;;;;;;5071862;28;1688;-69
2021/03/21 04:16:23;;;;;;;;;;;19.60;54.70;;;;;;5071762;28;1627;-69
2021/03/21 04:18:53;;;;;;;;;;;19.60;54.60;;;;;;5088517;28;1661;-68
2021/03/21 04:21:41;;;;;;;;;;;19.70;54.50;;;;;;5071635;28;1658;-69
2021/03/21 04:24:17;;;;;;;;;;;19.80;54.40;;;;;;5067188;28;1645;-69
2021/03/21 04:26:49;;;;;;;;;;;19.90;54.20;;;;;;5088458;28;1608;-68
2021/03/21 04:29:21;;;;;;;;;;;20.00;54.00;;;;;;5072757;28;1658;-68
2021/03/21 04:31:47;;;;;;;;;;;20.10;53.80;;;;;;5071637;28;1894;-68
2021/03/21 04:34:12;;;;;;;;;;;20.20;53.60;;;;;;5071775;28;1698;-68
2021/03/21 04:36:38;;;;;;;;;;;20.30;53.40;;;;;;5071487;28;1650;-68
2021/03/21 04:39:05;;;;;;;;;;;20.40;53.20;;;;;;5071431;28;1694;-68
2021/03/21 04:41:32;;;;;;;;;;;20.40;53.00;;;;;;5071515;28;1370;-68
2021/03/21 04:43:58;;;;;;;;;;;20.50;52.80;;;;;;5072109;28;1673;-69
2021/03/21 04:46:25;;;;;;;;;;;20.60;52.60;;;;;;5071380;28;1695;-69
2021/03/21 04:48:54;;;;;;;;;;;20.70;52.50;;;;;;5071599;28;1399;-68
2021/03/21 04:51:20;;;;;;;;;;;20.70;52.40;;;;;;5071399;28;1973;-68
2021/03/21 04:53:47;;;;;;;;;;;20.80;52.30;;;;;;5071609;28;1692;-68
2021/03/21 04:56:16;;;;;;;;;;;20.80;52.80;;;;;;5071480;28;1548;-67
2021/03/21 04:58:42;;;;;;;;;;;20.80;52.10;;;;;;5088091;28;1557;-68
2021/03/21 05:01:21;;;;;;;;;;;20.90;52.00;;;;;;5052973;28;1473;-68
2021/03/21 05:04:06;;;;;;;;;;;20.90;52.00;;;;;;5067542;28;1433;-68
2021/03/21 05:06:40;;;;;;;;;;;21.00;51.90;;;;;;5072731;28;1680;-69
2021/03/21 05:09:05;;;;;;;;;;;21.00;51.90;;;;;;5072286;28;1664;-69
2021/03/21 05:11:38;;;;;;;;;;;21.00;51.80;;;;;;5071467;28;1965;-69
2021/03/21 05:14:04;;;;;;;;;;;21.00;51.70;;;;;;5071285;28;1702;-68
2021/03/21 05:16:35;;;;;;;;;;;21.10;51.70;;;;;;5071204;28;1705;-68
2021/03/21 05:19:21;;;;;;;;;;;21.10;51.70;;;;;;5071018;28;1833;-69
2021/03/21 05:21:50;;;;;;;;;;;21.10;51.60;;;;;;5071361;28;1433;-68
2021/03/21 05:24:36;;;;;;;;;;;21.20;51.60;;;;;;5072553;28;1391;-68
2021/03/21 05:27:05;;;;;;;;;;;21.20;51.60;;;;;;5070937;28;1714;-68
2021/03/21 05:29:54;;;;;;;;;;;21.20;51.60;;;;;;5071311;28;1620;-69
2021/03/21 05:32:20;;;;;;;;;;;21.20;51.50;;;;;;5066853;28;1955;-69
2021/03/21 05:34:46;;;;;;;;;;;21.20;51.40;;;;;;5075074;28;1737;-69
2021/03/21 05:37:14;;;;;;;;;;;21.30;51.50;;;;;;5074518;28;1408;-69
2021/03/21 05:39:58;;;;;;;;;;;21.30;51.40;;;;;;5076209;28;1654;-69
2021/03/21 05:42:36;;;;;;;;;;;21.30;51.40;;;;;;5076003;28;1356;-68
2021/03/21 05:45:20;;;;;;;;;;;21.30;51.40;;;;;;5075964;28;1346;-69
2021/03/21 05:48:04;;;;;;;;;;;21.30;51.40;;;;;;5091314;28;1450;-69
2021/03/21 05:50:39;;;;;;;;;;;21.40;51.40;;;;;;5076127;28;1576;-69
2021/03/21 05:53:20;;;;;;;;;;;21.40;51.40;;;;;;5074368;28;1898;-69
2021/03/21 05:55:50;;;;;;;;;;;21.40;51.30;;;;;;5075835;28;1594;-69
2021/03/21 05:58:22;;;;;;;;;;;21.40;51.30;;;;;;5091166;28;1591;-69
2021/03/21 06:00:51;;;;;;;;;;;21.40;51.30;;;;;;5058939;28;1642;-69
2021/03/21 06:03:20;;;;;;;;;;;21.40;51.30;;;;;;5067365;28;1375;-69
2021/03/21 06:05:45;;;;;;;;;;;21.40;51.30;;;;;;5074441;28;1745;-68
2021/03/21 06:08:28;;;;;;;;;;;21.40;51.20;;;;;;5075219;28;1543;-68
2021/03/21 06:10:59;;;;;;;;;;;21.40;51.20;;;;;;5074246;28;1703;-67
2021/03/21 06:13:33;;;;;;;;;;;21.50;51.20;;;;;;5075657;28;1544;-68
2021/03/21 06:16:06;;;;;;;;;;;21.50;51.80;;;;;;5074201;28;1646;-67
2021/03/21 06:18:51;;;;;;;;;;;21.50;51.20;;;;;;5074086;28;1721;-67
2021/03/21 06:21:34;;;;;;;;;;;21.50;51.20;;;;;;5075151;28;1608;-68
2021/03/21 06:24:21;;;;;;;;;;;21.50;51.20;;;;;;5075478;28;1733;-68
2021/03/21 06:27:04;;;;;;;;;;;21.50;51.20;;;;;;5073736;28;1443;-68
2021/03/21 06:29:51;;;;;;;;;;;21.50;51.20;;;;;;5073865;28;1751;-68
2021/03/21 06:32:23;;;;;;;;;;;21.50;51.20;;;;;;5073710;28;1905;-68
2021/03/21 06:35:26;;;;;;;;;;;21.50;51.20;;;;;;5073922;28;1654;-68
2021/03/21 06:37:52;;;;;;;;;;;21.50;51.30;;;;;;5074291;28;1311;-68
2021/03/21 06:40:17;;;;;;;;;;;21.50;51.30;;;;;;5075117;28;1856;-68
2021/03/21 06:42:46;;;;;;;;;;;21.50;51.30;;;;;;5074792;28;1305;-68
2021/03/21 06:45:20;;;;;;;;;;;21.40;51.40;;;;;;5073223;28;1328;-68
2021/03/21 06:48:01;;;;;;;;;;;21.40;51.40;;;;;;5061366;22;2202;-66
2021/03/21 06:50:38;;;;;;;;;;;21.40;51.50;;;;;;5061761;28;1327;-65
2021/03/21 06:53:22;;;;;;;;;;;21.40;51.50;;;;;;5069643;28;1967;-66
2021/03/21 06:55:54;;;;;;;;;;;21.40;51.60;;;;;;5054285;28;1395;-66
2021/03/21 06:58:39;;;;;;;;;;;21.40;51.70;;;;;;5052190;28;1191;-66
2021/03/21 07:01:04;;;;;;;;;;;21.30;51.60;;;;;;5052748;28;1395;-66
2021/03/21 07:03:42;;;;;;;;;;;21.30;51.60;;;;;;5054289;28;1379;-66
2021/03/21 07:06:32;;;;;;;;;;;21.30;51.70;;;;;;5052564;28;1422;-66
2021/03/21 07:09:08;;;;;;;;;;;21.30;51.80;;;;;;5051516;28;1379;-66
2021/03/21 07:11:45;;;;;;;;;;;21.20;51.80;;;;;;5053755;28;1906;-66
2021/03/21 07:14:29;;;;;;;;;;;21.20;51.90;;;;;;5053831;28;1701;-66
2021/03/21 07:17:07;;;;;;;;;;;21.20;51.90;;;;;;5053599;28;1393;-67
2021/03/21 07:19:47;;;;;;;;;;;21.20;52.00;;;;;;5053569;28;1390;-66
2021/03/21 07:22:14;;;;;;;;;;;21.20;52.10;;;;;;5052089;28;1522;-66
2021/03/21 07:24:55;;;;;;;;;;;21.10;52.00;;;;;;5053789;28;1258;-65
2021/03/21 07:27:29;;;;;;;;;;;21.10;52.10;;;;;;5052634;28;1782;-66
2021/03/21 07:29:58;;;;;;;;;;;21.10;52.20;;;;;;5053536;28;1394;-66
2021/03/21 07:32:43;;;;;;;;;;;21.10;52.20;;;;;;5051868;28;1897;-67
2021/03/21 07:35:11;;;;;;;;;;;21.10;52.30;;;;;;5052256;28;1392;-66
2021/03/21 07:37:42;;;;;;;;;;;21.00;52.30;;;;;;5052601;28;1405;-66
2021/03/21 07:40:16;;;;;;;;;;;21.00;52.30;;;;;;5042025;28;1947;-65
2021/03/21 07:42:51;;;;;;;;;;;21.00;52.40;;;;;;5042759;28;1326;-64
2021/03/21 07:45:23;;;;;;;;;;;21.00;52.40;;;;;;5046605;28;1564;-65
2021/03/21 07:48:08;;;;;;;;;;;21.00;52.40;;;;;;5050222;28;1329;-66
2021/03/21 07:50:42;;;;;;;;;;;21.00;52.50;;;;;;5050631;28;1205;-66
2021/03/21 07:53:11;;;;;;;;;;;20.90;52.50;;;;;;5050652;28;1965;-67
2021/03/21 07:55:36;;;;;;;;;;;20.90;52.50;;;;;;5051496;28;1255;-66
2021/03/21 07:58:05;;;;;;;;;;;20.90;52.60;;;;;;5052410;28;1340;-67
2021/03/21 08:00:31;;;;;;;;;;;20.90;52.60;;;;;;5051261;28;1665;-67
2021/03/21 08:03:22;;;;;;;;;;;20.90;52.70;;;;;;5052934;28;1668;-67
2021/03/21 08:05:51;;;;;;;;;;;20.90;52.70;;;;;;5051820;28;1575;-67
2021/03/21 08:08:18;;;;;;;;;;;20.80;52.70;;;;;;5052058;28;1357;-67
2021/03/21 08:10:43;;;;;;;;;;;20.80;52.80;;;;;;5051245;28;1213;-66
2021/03/21 08:13:12;;;;;;;;;;;20.80;52.80;;;;;;5052568;28;1902;-67
2021/03/21 08:15:38;;;;;;;;;;;20.80;52.90;;;;;;5052859;28;1207;-67
2021/03/21 08:18:04;;;;;;;;;;;20.80;52.90;;;;;;5050612;28;1812;-67
2021/03/21 08:20:33;;;;;;;;;;;20.70;52.90;;;;;;5052871;28;1688;-67
2021/03/21 08:23:08;;;;;;;;;;;20.70;52.90;;;;;;5051504;28;1659;-67
2021/03/21 08:25:36;;;;;;;;;;;20.70;53.00;;;;;;5052842;28;1418;-67
2021/03/21 08:28:01;;;;;;;;;;;20.70;53.00;;;;;;5052412;28;1620;-67
2021/03/21 08:30:27;;;;;;;;;;;20.70;53.10;;;;;;5051472;28;1457;-67
2021/03/21 08:32:59;;;;;;;;;;;20.70;53.10;;;;;;5052072;28;1906;-67
2021/03/21 08:35:29;;;;;;;;;;;20.70;53.20;;;;;;5051120;28;1631;-67
2021/03/21 08:37:55;;;;;;;;;;;20.60;53.10;;;;;;5033624;28;1368;-66
2021/03/21 08:40:22;;;;;;;;;;;20.60;53.20;;;;;;5051304;28;1597;-66
2021/03/21 08:42:49;;;;;;;;;;;20.60;53.20;;;;;;5050749;28;1386;-66
2021/03/21 08:45:31;;;;;;;;;;;20.60;53.20;;;;;;5051044;28;1132;-67
2021/03/21 08:47:59;;;;;;;;;;;20.60;53.20;;;;;;5050217;28;1365;-67
2021/03/21 08:50:33;;;;;;;;;;;20.60;53.30;;;;;;5050892;28;1421;-67
2021/03/21 08:52:58;;;;;;;;;;;20.60;53.30;;;;;;5050826;28;1914;-67
2021/03/21 08:55:25;;;;;;;;;;;20.50;53.30;;;;;;5050789;28;1378;-67
2021/03/21 08:57:50;;;;;;;;;;;20.60;53.40;;;;;;5050215;28;1301;-67
2021/03/21 09:00:36;;;;;;;;;;;20.50;53.40;;;;;;5050723;28;1323;-67
2021/03/21 09:03:16;;;;;;;;;;;20.50;53.40;;;;;;5052069;28;1377;-67
2021/03/21 09:05:50;;;;;;;;;;;20.50;53.40;;;;;;5052106;28;1652;-66
2021/03/21 09:08:17;;;;;;;;;;;20.50;53.40;;;;;;5053554;28;1325;-67
2021/03/21 09:10:52;;;;;;;;;;;20.50;53.50;;;;;;5050873;28;1691;-63
2021/03/21 09:13:19;;;;;;;;;;;20.40;53.50;;;;;;5041858;28;1902;-64
2021/03/21 09:15:54;;;;;;;;;;;20.50;53.50;;;;;;5054254;28;1358;-64
2021/03/21 09:18:19;;;;;;;;;;;20.50;53.50;;;;;;5054891;28;1368;-65
2021/03/21 09:21:05;;;;;;;;;;;20.40;53.60;;;;;;5054018;28;1562;-64
2021/03/21 09:23:31;;;;;;;;;;;20.40;53.60;;;;;;5055243;28;1744;-64
2021/03/21 09:25:57;;;;;;;;;;;20.40;53.60;;;;;;5055101;28;1652;-64
2021/03/21 09:28:24;;;;;;;;;;;20.40;53.60;;;;;;5052737;28;1705;-67
2021/03/21 09:30:49;;;;;;;;;;;20.40;53.60;;;;;;5053886;28;1701;-67
2021/03/21 09:33:17;;;;;;;;;;;20.40;53.70;;;;;;5054621;28;1902;-66
2021/03/21 09:35:45;;;;;;;;;;;20.40;53.70;;;;;;5053607;28;1653;-66
2021/03/21 09:38:22;;;;;;;;;;;20.40;53.70;;;;;;5052714;28;1706;-66
2021/03/21 09:40:52;;;;;;;;;;;20.40;53.80;;;;;;5054288;28;1379;-66
2021/03/21 09:43:19;;;;;;;;;;;20.40;53.80;;;;;;5052919;28;1621;-66
2021/03/21 09:45:45;;;;;;;;;;;20.40;53.80;;;;;;5054312;28;1406;-66
2021/03/21 09:48:26;;;;;;;;;;;20.30;53.80;;;;;;5052224;28;1596;-67
2021/03/21 09:51:05;;;;;;;;;;;20.30;53.80;;;;;;5054625;28;1360;-65
2021/03/21 09:53:30;;;;;;;;;;;20.30;53.80;;;;;;5054523;28;1641;-66
2021/03/21 09:55:55;;;;;;;;;;;20.30;53.80;;;;;;5052794;28;1668;-65
2021/03/21 09:58:39;;;;;;;;;;;20.30;53.90;;;;;;5052529;28;1385;-67
2021/03/21 10:01:14;;;;;;;;;;;20.30;53.90;;;;;;5053771;28;1441;-67
2021/03/21 10:03:40;;;;;;;;;;;20.30;54.00;;;;;;5053192;28;1391;-66
2021/03/21 10:06:07;;;;;;;;;;;20.20;53.90;;;;;;5052665;28;1603;-67
2021/03/21 10:08:45;;;;;;;;;;;20.20;53.90;;;;;;5052328;28;1619;-66
2021/03/21 10:11:12;;;;;;;;;;;20.20;54.00;;;;;;5044714;28;1984;-62
2021/03/21 10:13:38;;;;;;;;;;;20.20;54.00;;;;;;5046000;28;1396;-67
2021/03/21 10:16:23;;;;;;;;;;;20.20;54.00;;;;;;5052912;28;1611;-66
2021/03/21 10:18:49;;;;;;;;;;;20.20;54.10;;;;;;5051792;28;1442;-67
2021/03/21 10:21:23;;;;;;;;;;;20.20;54.10;;;;;;5053102;28;1390;-67
2021/03/21 10:23:52;;;;;;;;;;;20.20;54.10;;;;;;5054845;28;1344;-67
2021/03/21 10:26:18;;;;;;;;;;;20.20;54.20;;;;;;5054792;28;1389;-67
2021/03/21 10:28:56;;;;;;;;;;;20.10;54.20;;;;;;5052162;28;1064;-68
2021/03/21 10:31:22;;;;;;;;;;;20.10;54.20;;;;;;5053707;28;1902;-67
2021/03/21 10:33:48;;;;;;;;;;;20.10;54.20;;;;;;5052722;28;1377;-67
2021/03/21 10:36:33;;;;;;;;;;;20.10;54.30;;;;;;5050873;28;1397;-66
2021/03/21 10:38:59;;;;;;;;;;;20.10;54.30;;;;;;5049120;28;1405;-66
2021/03/21 10:41:43;;;;;;;;;;;20.10;54.30;;;;;;5052198;28;1290;-64
2021/03/21 10:44:08;;;;;;;;;;;20.10;54.30;;;;;;5052661;28;1205;-64
2021/03/21 10:46:44;;;;;;;;;;;20.10;54.30;;;;;;5051723;28;1687;-66
2021/03/21 10:49:10;;;;;;;;;;;20.10;54.30;;;;;;5052332;28;1416;-66
2021/03/21 10:51:54;;;;;;;;;;;20.10;54.30;;;;;;5051995;28;1910;-66
2021/03/21 10:54:23;;;;;;;;;;;20.10;54.30;;;;;;5053600;28;1764;-66
2021/03/21 10:57:08;;;;;;;;;;;20.10;54.40;;;;;;5051812;28;1519;-65
2021/03/21 10:59:33;;;;;;;;;;;20.10;54.40;;;;;;5052815;28;1715;-66
2021/03/21 11:02:17;;;;;;;;;;;20.10;54.40;;;;;;5053337;28;1702;-66
2021/03/21 11:04:43;;;;;;;;;;;20.10;54.40;;;;;;5033843;28;1969;-66
2021/03/21 11:07:18;;;;;;;;;;;20.10;54.40;;;;;;5051905;28;1608;-65
2021/03/21 11:09:48;;;;;;;;;;;20.00;54.90;;;;;;5050681;28;1459;-67
2021/03/21 11:12:14;;;;;;;;;;;20.10;54.40;;;;;;5053324;28;1905;-67
2021/03/21 11:14:39;;;;;;;;;;;20.00;54.40;;;;;;5052302;28;1510;-67
2021/03/21 11:17:10;;;;;;;;;;;20.00;54.40;;;;;;5052975;28;1486;-65
2021/03/21 11:19:41;;;;;;;;;;;20.00;54.40;;;;;;5053258;28;1383;-65
2021/03/21 11:22:15;;;;;;;;;;;20.00;54.40;;;;;;5049431;28;1638;-66
2021/03/21 11:24:41;;;;;;;;;;;20.00;54.40;;;;;;5054061;28;1555;-66
2021/03/21 11:27:10;;;;;;;;;;;20.00;54.40;;;;;;5044808;28;1313;-64
2021/03/21 11:29:38;;;;;;;;;;;20.00;54.40;;;;;;5051534;28;1369;-66
2021/03/21 11:32:13;;;;;;;;;;;20.00;54.40;;;;;;5050629;28;2024;-66
2021/03/21 11:34:38;;;;;;;;;;;20.00;54.40;;;;;;5052745;28;1589;-66
2021/03/21 11:37:07;;;;;;;;;;;20.00;54.40;;;;;;5048622;28;1539;-64
2021/03/21 11:39:52;;;;;;;;;;;20.00;54.40;;;;;;5051810;28;1397;-66
2021/03/21 11:42:29;;;;;;;;;;;20.00;54.40;;;;;;5049978;28;1671;-66
2021/03/21 11:45:13;;;;;;;;;;;20.00;54.40;;;;;;5051509;28;1644;-66
2021/03/21 11:47:39;;;;;;;;;;;20.00;54.40;;;;;;5051744;28;1673;-66
2021/03/21 11:50:05;;;;;;;;;;;20.00;54.40;;;;;;5051331;28;1578;-66
2021/03/21 11:52:30;;;;;;;;;;;20.00;54.40;;;;;;5050790;28;1906;-66
2021/03/21 11:54:58;;;;;;;;;;;20.00;54.40;;;;;;5051164;28;1816;-66
2021/03/21 11:57:25;;;;;;;;;;;20.00;54.40;;;;;;5051006;28;1759;-66
2021/03/21 12:00:06;;;;;;;;;;;20.00;54.40;;;;;;5053129;28;1357;-66
2021/03/21 12:02:48;;;;;;;;;;;20.00;54.50;;;;;;5051848;28;1688;-66
2021/03/21 12:05:18;;;;;;;;;;;20.00;54.50;;;;;;5051467;28;1596;-66
2021/03/21 12:07:44;;;;;;;;;;;20.00;54.50;;;;;;5051063;28;1665;-68
2021/03/21 12:10:15;;;;;;;;;;;20.00;54.50;;;;;;5052662;28;1381;-66
2021/03/21 12:12:41;;;;;;;;;;;20.00;54.50;;;;;;5052882;28;1894;-66
2021/03/21 12:15:29;;;;;;;;;;;20.00;54.50;;;;;;5052763;28;1671;-66
2021/03/21 12:18:01;;;;;;;;;;;20.00;54.50;;;;;;5050622;28;1537;-64
2021/03/21 12:20:38;;;;;;;;;;;20.00;54.50;;;;;;5048028;28;1706;-65
2021/03/21 12:23:03;;;;;;;;;;;20.00;54.50;;;;;;5061010;28;1557;-64
2021/03/21 12:25:35;;;;;;;;;;;20.00;54.50;;;;;;5052265;28;1659;-66
2021/03/21 12:28:02;;;;;;;;;;;20.00;54.50;;;;;;5049687;28;1442;-65
2021/03/21 12:30:32;;;;;;;;;;;20.00;54.50;;;;;;5047281;28;1480;-65
2021/03/21 12:33:15;;;;;;;;;;;19.90;54.40;;;;;;5048831;28;1894;-65
2021/03/21 12:35:41;;;;;;;;;;;19.90;54.40;;;;;;5037536;28;1329;-66
2021/03/21 12:38:09;;;;;;;;;;;19.90;54.40;;;;;;5051259;28;1367;-65
2021/03/21 12:40:37;;;;;;;;;;;19.90;54.50;;;;;;5049933;28;1296;-65
2021/03/21 12:43:18;;;;;;;;;;;19.90;54.50;;;;;;5065559;28;1213;-65
2021/03/21 12:45:58;;;;;;;;;;;19.90;54.50;;;;;;5070609;28;1258;-65
2021/03/21 12:48:23;;;;;;;;;;;19.90;54.50;;;;;;5056831;28;1297;-63
2021/03/21 12:50:49;;;;;;;;;;;19.90;54.50;;;;;;5070475;28;1370;-63
2021/03/21 12:53:41;;;;;;;;;;;19.90;54.50;;;;;;5068752;28;1906;-64
2021/03/21 12:56:06;;;;;;;;;;;19.90;54.50;;;;;;5050264;28;1382;-65
2021/03/21 12:58:31;;;;;;;;;;;19.90;54.50;;;;;;5050939;28;1199;-63
2021/03/21 13:00:57;;;;;;;;;;;19.90;54.50;;;;;;5048390;28;1216;-65
2021/03/21 13:03:24;;;;;;;;;;;19.90;54.60;;;;;;5049158;28;1211;-63
2021/03/21 13:05:54;;;;;;;;;;;19.90;54.60;;;;;;5048991;28;1288;-63
2021/03/21 13:08:19;;;;;;;;;;;19.90;54.60;;;;;;5048364;28;1365;-63
2021/03/21 13:10:45;;;;;;;;;;;19.80;54.60;;;;;;5046827;28;1228;-65
2021/03/21 13:13:10;;;;;;;;;;;19.90;54.60;;;;;;5049124;28;1930;-62
2021/03/21 13:15:36;;;;;;;;;;;19.80;54.90;;;;;;5049210;28;1182;-64
2021/03/21 13:18:02;;;;;;;;;;;19.90;54.70;;;;;;5048361;28;1255;-65
2021/03/21 13:20:27;;;;;;;;;;;19.80;54.70;;;;;;5047682;28;1366;-63
2021/03/21 13:22:52;;;;;;;;;;;19.80;54.70;;;;;;5044554;28;1887;-64
2021/03/21 13:25:23;;;;;;;;;;;19.80;54.70;;;;;;5049898;28;1469;-64
2021/03/21 13:27:56;;;;;;;;;;;19.80;54.70;;;;;;5031549;28;1360;-63
2021/03/21 13:30:22;;;;;;;;;;;19.80;54.80;;;;;;5048363;28;1128;-65
2021/03/21 13:32:48;;;;;;;;;;;19.80;54.80;;;;;;5049699;28;1950;-63
2021/03/21 13:35:13;;;;;;;;;;;19.80;54.80;;;;;;5048553;28;1286;-64
2021/03/21 13:37:39;;;;;;;;;;;19.80;54.80;;;;;;5047549;28;1255;-63
2021/03/21 13:40:04;;;;;;;;;;;19.80;54.80;;;;;;5048798;28;1062;-63
2021/03/21 13:42:30;;;;;;;;;;;19.70;54.80;;;;;;5050375;28;1226;-63
2021/03/21 13:44:56;;;;;;;;;;;19.80;54.90;;;;;;5050100;28;1052;-63
2021/03/21 13:47:22;;;;;;;;;;;19.80;54.80;;;;;;5048402;28;1395;-63
2021/03/21 13:49:47;;;;;;;;;;;19.80;54.70;;;;;;5049310;28;1065;-63
2021/03/21 13:52:13;;;;;;;;;;;19.90;54.60;;;;;;5050308;28;1975;-64
2021/03/21 13:54:38;;;;;;;;;;;19.90;54.50;;;;;;5043537;28;1043;-68
2021/03/21 13:57:05;;;;;;;;;;;20.00;54.50;;;;;;5051319;28;1362;-62
2021/03/21 13:59:31;;;;;;;;;;;20.10;54.30;;;;;;5051557;28;1303;-63
2021/03/21 14:01:56;;;;;;;;;;;20.20;54.10;;;;;;5052134;28;1447;-63
2021/03/21 14:04:22;;;;;;;;;;;20.30;53.90;;;;;;5050557;28;1258;-63
2021/03/21 14:06:49;;;;;;;;;;;20.40;53.70;;;;;;5051419;28;1366;-66
2021/03/21 14:09:14;;;;;;;;;;;20.50;53.50;;;;;;5052733;28;1344;-63
2021/03/21 14:11:39;;;;;;;;;;;20.60;53.30;;;;;;5053801;28;1894;-64
2021/03/21 14:14:05;;;;;;;;;;;20.70;53.20;;;;;;5052974;28;1020;-64
2021/03/21 14:16:30;;;;;;;;;;;20.70;52.90;;;;;;5053782;28;1308;-64
2021/03/21 14:18:56;;;;;;;;;;;20.80;52.90;;;;;;5053155;28;1259;-64
2021/03/21 14:21:21;;;;;;;;;;;20.80;52.70;;;;;;5053722;28;1289;-64
2021/03/21 14:23:47;;;;;;;;;;;20.90;52.60;;;;;;5053148;28;1256;-63
2021/03/21 14:26:12;;;;;;;;;;;20.90;52.50;;;;;;5053654;28;1227;-63
2021/03/21 14:28:37;;;;;;;;;;;21.00;52.40;;;;;;5053406;28;1277;-64
2021/03/21 14:31:03;;;;;;;;;;;21.00;52.30;;;;;;5053644;28;1319;-63
2021/03/21 14:33:29;;;;;;;;;;;21.00;52.30;;;;;;5053748;28;1902;-63
2021/03/21 14:35:54;;;;;;;;;;;21.00;52.20;;;;;;5052023;28;1286;-63
2021/03/21 14:38:20;;;;;;;;;;;21.10;52.10;;;;;;5051269;28;1353;-63
2021/03/21 14:40:46;;;;;;;;;;;21.10;52.10;;;;;;5053516;28;1277;-63
2021/03/21 14:43:12;;;;;;;;;;;21.10;52.00;;;;;;5052929;28;1284;-64
2021/03/21 14:45:37;;;;;;;;;;;21.20;52.00;;;;;;5052240;28;1268;-63
2021/03/21 14:48:03;;;;;;;;;;;21.20;51.90;;;;;;5052248;28;1337;-64
2021/03/21 14:50:29;;;;;;;;;;;21.20;51.90;;;;;;5053107;28;1303;-64